createdAt,value
2019-04-25T00:02:14.986Z,99.90
2019-04-25T00:05:06.169Z,99.90
2019-04-25T00:07:35.460Z,99.90
2019-04-25T00:10:06.817Z,99.90
2019-04-25T00:12:37.863Z,99.90
2019-04-25T00:15:07.876Z,99.90
2019-04-25T00:17:38.762Z,99.90
2019-04-25T00:23:56.784Z,99.90
2019-04-25T00:26:33.870Z,99.90
2019-04-25T00:29:04.020Z,99.90
2019-04-25T00:31:33.347Z,99.90
2019-04-25T00:34:02.884Z,99.90
2019-04-25T00:36:32.189Z,99.90
2019-04-25T00:39:01.950Z,99.90
2019-04-25T00:41:32.033Z,99.90
2019-04-25T00:44:02.481Z,99.90
2019-04-25T00:46:32.275Z,99.90
2019-04-25T00:49:22.019Z,99.90
2019-04-25T00:51:52.400Z,99.90
2019-04-25T00:54:22.736Z,99.90
2019-04-25T00:56:52.777Z,99.90
2019-04-25T00:59:33.474Z,99.90
2019-04-25T01:02:13.190Z,99.90
2019-04-25T01:04:43.717Z,99.90
2019-04-25T01:07:13.206Z,99.90
2019-04-25T01:10:31.554Z,99.90
2019-04-25T01:13:03.051Z,99.90
2019-04-25T01:16:09.515Z,99.90
2019-04-25T01:18:38.770Z,99.90
2019-04-25T01:21:08.134Z,99.90
2019-04-25T01:23:37.386Z,99.90
2019-04-25T01:26:06.999Z,99.90
2019-04-25T01:28:36.370Z,99.90
2019-04-25T01:31:07.327Z,99.90
2019-04-25T01:33:54.601Z,99.90
2019-04-25T01:36:29.135Z,99.90
2019-04-25T01:39:04.314Z,99.90
2019-04-25T01:41:41.269Z,99.90
2019-04-25T01:44:21.399Z,99.90
2019-04-25T01:46:51.828Z,99.90
2019-04-25T01:49:21.972Z,99.90
2019-04-25T01:51:51.342Z,99.90
2019-04-25T01:54:20.590Z,99.90
2019-04-25T01:56:50.820Z,99.90
2019-04-25T01:59:20.299Z,99.90
2019-04-25T02:01:50.939Z,99.90
2019-04-25T02:04:23.137Z,99.90
2019-04-25T02:07:13.386Z,99.90
2019-04-25T02:09:43.570Z,99.90
2019-04-25T02:12:15.539Z,99.90
2019-04-25T02:14:45.144Z,99.90
2019-04-25T02:17:15.058Z,99.90
2019-04-25T02:19:44.422Z,99.90
2019-04-25T02:22:14.578Z,99.90
2019-04-25T02:24:43.981Z,99.90
2019-04-25T02:27:13.639Z,99.90
2019-04-25T02:29:44.683Z,99.90
2019-04-25T02:32:14.744Z,99.90
2019-04-25T02:34:45.512Z,99.90
2019-04-25T02:37:15.138Z,99.90
2019-04-25T02:39:44.833Z,99.90
2019-04-25T02:42:16.900Z,99.90
2019-04-25T02:44:47.080Z,99.90
2019-04-25T02:47:18.086Z,99.90
2019-04-25T02:49:59.007Z,99.90
2019-04-25T02:52:34.426Z,99.90
2019-04-25T02:55:10.833Z,99.90
2019-04-25T02:58:10.329Z,99.90
2019-04-25T03:00:55.115Z,99.90
2019-04-25T03:03:11.970Z,99.90
2019-04-25T03:05:41.319Z,99.90
2019-04-25T03:08:10.725Z,99.90
2019-04-25T03:10:40.207Z,99.90
2019-04-25T03:13:11.744Z,99.90
2019-04-25T03:15:40.520Z,99.90
2019-04-25T03:18:30.803Z,99.90
2019-04-25T03:21:17.634Z,99.90
2019-04-25T03:23:48.836Z,99.90
2019-04-25T03:26:18.073Z,99.90
2019-04-25T03:28:47.363Z,99.90
2019-04-25T03:31:22.380Z,99.90
2019-04-25T03:33:47.766Z,99.90
2019-04-25T03:36:17.297Z,99.90
2019-04-25T03:38:46.649Z,99.90
2019-04-25T03:41:15.986Z,99.90
2019-04-25T03:43:45.518Z,99.90
2019-04-25T03:46:14.923Z,99.90
2019-04-25T03:48:44.239Z,99.90
2019-04-25T03:51:15.423Z,99.90
2019-04-25T03:53:44.994Z,99.90
2019-04-25T03:56:14.632Z,99.90
2019-04-25T03:58:44.102Z,99.90
2019-04-25T04:01:15.424Z,99.90
2019-04-25T04:03:44.381Z,99.90
2019-04-25T04:06:14.615Z,99.90
2019-04-25T04:08:44.579Z,99.90
2019-04-25T04:11:33.753Z,99.90
2019-04-25T04:14:04.885Z,99.90
2019-04-25T04:16:35.697Z,99.90
2019-04-25T04:19:06.743Z,99.90
2019-04-25T04:21:37.850Z,99.90
2019-04-25T04:24:11.777Z,99.90
2019-04-25T04:26:41.138Z,99.90
2019-04-25T04:29:10.454Z,99.90
2019-04-25T04:31:39.687Z,99.90
2019-04-25T04:34:08.910Z,99.90
2019-04-25T04:36:38.165Z,99.90
2019-04-25T04:39:09.062Z,99.90
2019-04-25T04:41:38.805Z,99.90
2019-04-25T04:44:08.323Z,99.90
2019-04-25T04:46:37.671Z,99.90
2019-04-25T04:49:06.921Z,99.90
2019-04-25T04:51:36.184Z,99.90
2019-04-25T04:54:05.412Z,99.90
2019-04-25T04:56:34.702Z,99.90
2019-04-25T04:59:04.007Z,99.90
2019-04-25T05:01:34.875Z,99.90
2019-04-25T05:04:13.049Z,99.90
2019-04-25T05:06:47.597Z,99.90
2019-04-25T05:09:18.524Z,99.90
2019-04-25T05:12:07.095Z,99.90
2019-04-25T05:14:36.342Z,99.90
2019-04-25T05:17:05.594Z,99.90
2019-04-25T05:19:34.845Z,99.90
2019-04-25T05:22:04.156Z,99.90
2019-04-25T05:24:33.864Z,99.90
2019-04-25T05:27:03.856Z,99.90
2019-04-25T05:29:33.992Z,99.90
2019-04-25T05:32:04.229Z,99.90
2019-04-25T05:34:34.482Z,99.90
2019-04-25T05:37:25.258Z,99.90
2019-04-25T05:39:54.224Z,99.90
2019-04-25T05:42:28.110Z,99.90
2019-04-25T05:44:59.045Z,99.90
2019-04-25T05:47:28.341Z,99.90
2019-04-25T05:50:17.859Z,99.90
2019-04-25T05:52:47.145Z,99.90
2019-04-25T05:55:18.952Z,99.90
2019-04-25T05:57:50.151Z,99.90
2019-04-25T06:00:19.054Z,99.90
2019-04-25T06:02:48.428Z,99.90
2019-04-25T06:05:17.669Z,99.90
2019-04-25T06:07:46.915Z,99.90
2019-04-25T06:10:25.664Z,99.90
2019-04-25T06:13:05.483Z,99.90
2019-04-25T06:15:35.499Z,99.90
2019-04-25T06:18:06.450Z,99.90
2019-04-25T06:20:37.236Z,99.90
2019-04-25T06:23:08.120Z,99.90
2019-04-25T06:25:39.889Z,99.90
2019-04-25T06:28:09.978Z,99.90
2019-04-25T06:30:39.379Z,99.90
2019-04-25T06:33:08.611Z,99.90
2019-04-25T06:35:37.855Z,99.90
2019-04-25T06:38:07.124Z,99.90
2019-04-25T06:40:36.449Z,99.90
2019-04-25T06:43:05.702Z,99.90
2019-04-25T06:45:39.375Z,99.90
2019-04-25T06:48:26.058Z,99.90
2019-04-25T06:50:56.307Z,99.90
2019-04-25T06:53:26.750Z,99.90
2019-04-25T06:55:56.178Z,99.90
2019-04-25T06:58:27.205Z,99.90
2019-04-25T07:01:00.586Z,99.90
2019-04-25T07:03:27.313Z,99.90
2019-04-25T07:05:56.542Z,99.90
2019-04-25T07:08:26.911Z,99.90
2019-04-25T07:10:57.070Z,99.90
2019-04-25T07:13:27.039Z,99.90
2019-04-25T07:15:56.333Z,99.90
2019-04-25T07:18:30.222Z,99.90
2019-04-25T07:20:56.574Z,99.90
2019-04-25T07:23:25.842Z,99.90
2019-04-25T07:25:56.870Z,99.90
2019-04-25T07:28:36.921Z,99.90
2019-04-25T07:31:17.174Z,99.90
2019-04-25T07:33:48.070Z,99.90
2019-04-25T07:36:17.383Z,99.90
2019-04-25T07:38:46.629Z,99.90
2019-04-25T07:41:16.412Z,99.90
2019-04-25T07:43:45.785Z,99.90
2019-04-25T07:46:15.198Z,99.90
2019-04-25T07:48:44.575Z,99.90
2019-04-25T07:51:16.314Z,99.90
2019-04-25T07:53:44.781Z,99.90
2019-04-25T07:56:15.163Z,99.90
2019-04-25T07:58:51.645Z,99.90
2019-04-25T08:01:15.467Z,99.90
2019-04-25T08:03:44.873Z,99.90
2019-04-25T08:06:14.349Z,99.90
2019-04-25T08:08:43.883Z,99.90
2019-04-25T08:11:14.043Z,99.90
2019-04-25T08:13:48.194Z,99.90
2019-04-25T08:16:19.268Z,99.90
2019-04-25T08:18:49.751Z,99.90
2019-04-25T08:21:19.128Z,99.90
2019-04-25T08:23:49.429Z,99.90
2019-04-25T08:26:18.748Z,99.90
2019-04-25T08:28:54.433Z,99.90
2019-04-25T08:31:19.150Z,99.90
2019-04-25T08:33:51.051Z,99.90
2019-04-25T08:36:20.442Z,99.90
2019-04-25T08:38:49.701Z,99.90
2019-04-25T08:41:21.533Z,99.90
2019-04-25T08:43:49.984Z,99.90
2019-04-25T08:46:19.380Z,99.90
2019-04-25T08:49:06.622Z,99.90
2019-04-25T08:51:40.436Z,99.90
2019-04-25T08:54:11.399Z,99.90
2019-04-25T08:56:40.709Z,99.90
2019-04-25T08:59:37.266Z,99.90
2019-04-25T09:02:06.387Z,99.90
2019-04-25T09:04:38.025Z,99.90
2019-04-25T09:07:07.626Z,99.90
2019-04-25T09:09:37.819Z,99.90
2019-04-25T09:12:07.317Z,99.90
2019-04-25T09:14:37.716Z,99.90
2019-04-25T09:17:07.171Z,99.90
2019-04-25T09:19:38.179Z,99.90
2019-04-25T09:22:07.591Z,99.90
2019-04-25T09:24:38.067Z,99.90
2019-04-25T09:27:07.802Z,99.90
2019-04-25T09:29:37.069Z,99.90
2019-04-25T09:32:06.737Z,99.90
2019-04-25T09:34:35.985Z,99.90
2019-04-25T09:37:05.374Z,99.90
2019-04-25T09:39:36.886Z,99.90
2019-04-25T09:42:06.530Z,99.90
2019-04-25T09:44:54.013Z,99.90
2019-04-25T09:47:23.475Z,99.90
2019-04-25T09:49:53.849Z,99.90
2019-04-25T09:52:24.405Z,99.90
2019-04-25T09:54:55.510Z,99.90
2019-04-25T09:57:53.879Z,99.90
2019-04-25T10:00:34.198Z,99.90
2019-04-25T10:03:04.601Z,99.90
2019-04-25T10:05:34.383Z,99.90
2019-04-25T10:08:03.881Z,99.90
2019-04-25T10:10:33.229Z,99.90
2019-04-25T10:13:04.163Z,99.90
2019-04-25T10:15:52.910Z,99.90
2019-04-25T10:18:23.377Z,99.90
2019-04-25T10:20:54.215Z,99.90
2019-04-25T10:23:24.031Z,99.90
2019-04-25T10:25:53.731Z,99.90
2019-04-25T10:28:23.508Z,99.90
2019-04-25T10:31:13.656Z,99.90
2019-04-25T10:33:43.722Z,99.90
2019-04-25T10:36:14.735Z,99.70
2019-04-25T10:38:46.983Z,97.80
2019-04-25T10:41:35.846Z,99.10
2019-04-25T10:44:05.719Z,99.40
2019-04-25T10:46:35.055Z,99.90
2019-04-25T10:49:04.541Z,99.90
2019-04-25T10:51:34.324Z,99.90
2019-04-25T10:54:23.936Z,99.90
2019-04-25T10:56:53.182Z,99.90
2019-04-25T10:59:23.570Z,99.90
2019-04-25T11:01:53.904Z,99.90
2019-04-25T11:04:25.738Z,99.90
2019-04-25T11:06:55.690Z,99.90
2019-04-25T11:09:25.871Z,99.30
2019-04-25T11:11:55.193Z,99.90
2019-04-25T11:14:25.175Z,99.90
2019-04-25T11:16:55.229Z,99.80
2019-04-25T11:19:24.722Z,98.40
2019-04-25T11:21:54.114Z,99.60
2019-04-25T11:24:23.801Z,97.70
2019-04-25T11:26:55.155Z,97.50
2019-04-25T11:29:24.431Z,95.90
2019-04-25T11:31:53.962Z,89.60
2019-04-25T11:34:23.855Z,83.70
2019-04-25T11:36:53.235Z,79.80
2019-04-25T11:42:17.422Z,82.00
2019-04-25T11:44:46.692Z,85.40
2019-04-25T11:47:16.069Z,83.30
2019-04-25T11:49:46.477Z,86.20
2019-04-25T11:52:27.502Z,86.70
2019-04-25T11:54:48.803Z,85.50
2019-04-25T11:57:18.050Z,88.10
2019-04-25T11:59:49.230Z,87.50
2019-04-25T12:02:18.602Z,88.50
2019-04-25T12:04:48.951Z,90.20
2019-04-25T12:07:18.774Z,86.50
2019-04-25T12:09:48.197Z,83.80
2019-04-25T12:12:17.552Z,83.90
2019-04-25T12:14:47.610Z,81.00
2019-04-25T12:17:17.073Z,79.30
2019-04-25T12:19:47.061Z,81.20
2019-04-25T12:22:16.796Z,80.20
2019-04-25T12:24:46.718Z,80.60
2019-04-25T12:27:35.455Z,82.20
2019-04-25T12:30:05.848Z,84.20
2019-04-25T12:32:35.348Z,83.40
2019-04-25T12:35:06.589Z,83.70
2019-04-25T12:37:37.975Z,83.10
2019-04-25T12:40:08.145Z,84.50
2019-04-25T12:42:37.483Z,84.40
2019-04-25T12:45:08.903Z,85.40
2019-04-25T12:47:39.855Z,84.80
2019-04-25T12:50:09.361Z,85.10
2019-04-25T12:52:38.699Z,84.60
2019-04-25T12:55:09.014Z,83.10
2019-04-25T12:57:38.476Z,83.10
2019-04-25T13:00:08.546Z,85.70
2019-04-25T13:02:37.820Z,83.90
2019-04-25T13:05:07.399Z,82.70
2019-04-25T13:07:36.671Z,84.20
2019-04-25T13:10:07.933Z,85.40
2019-04-25T13:12:37.295Z,86.30
2019-04-25T13:15:06.796Z,82.00
2019-04-25T13:17:36.052Z,83.60
2019-04-25T13:20:08.358Z,84.00
2019-04-25T13:22:37.884Z,81.80
2019-04-25T13:25:08.421Z,83.20
2019-04-25T13:27:48.295Z,83.10
2019-04-25T13:30:35.471Z,82.40
2019-04-25T13:33:09.356Z,81.40
2019-04-25T13:35:49.254Z,83.90
2019-04-25T13:38:18.648Z,83.70
2019-04-25T13:40:47.892Z,81.40
2019-04-25T13:43:17.263Z,80.40
2019-04-25T13:45:46.761Z,80.50
2019-04-25T13:48:16.141Z,80.60
2019-04-25T13:51:04.751Z,80.70
2019-04-25T13:53:34.059Z,80.50
2019-04-25T13:56:04.879Z,79.90
2019-04-25T13:58:34.398Z,79.00
2019-04-25T14:01:12.839Z,79.20
2019-04-25T14:03:35.704Z,81.00
2019-04-25T14:06:05.288Z,80.40
2019-04-25T14:08:34.615Z,79.50
2019-04-25T14:11:05.200Z,80.20
2019-04-25T14:13:34.756Z,81.20
2019-04-25T14:16:13.370Z,81.50
2019-04-25T14:18:53.411Z,80.50
2019-04-25T14:21:24.646Z,81.70
2019-04-25T14:23:54.101Z,80.40
2019-04-25T14:26:25.013Z,79.80
2019-04-25T14:28:54.464Z,77.30
2019-04-25T14:31:41.011Z,78.00
2019-04-25T14:33:55.969Z,79.00
2019-04-25T14:36:27.134Z,78.60
2019-04-25T14:38:56.233Z,77.90
2019-04-25T14:41:26.061Z,78.90
2019-04-25T14:43:55.529Z,76.20
2019-04-25T14:46:26.383Z,79.20
2019-04-25T14:48:55.880Z,78.30
2019-04-25T14:51:26.084Z,77.00
2019-04-25T14:53:56.142Z,78.40
2019-04-25T14:56:36.270Z,75.90
2019-04-25T14:59:05.885Z,76.60
2019-04-25T15:01:44.557Z,75.10
2019-04-25T15:04:06.354Z,74.50
2019-04-25T15:06:35.685Z,74.20
2019-04-25T15:09:06.719Z,76.50
2019-04-25T15:11:55.457Z,75.00
2019-04-25T15:14:24.887Z,74.90
2019-04-25T15:16:54.246Z,73.10
2019-04-25T15:19:24.230Z,75.50
2019-04-25T15:21:53.555Z,76.20
2019-04-25T15:24:23.014Z,74.50
2019-04-25T15:26:53.248Z,74.60
2019-04-25T15:29:22.512Z,75.70
2019-04-25T15:31:55.942Z,75.30
2019-04-25T15:34:25.835Z,76.00
2019-04-25T15:37:02.901Z,75.80
2019-04-25T15:39:45.633Z,78.50
2019-04-25T15:42:16.642Z,78.10
2019-04-25T15:44:50.267Z,81.20
2019-04-25T15:47:21.234Z,79.90
2019-04-25T15:49:50.508Z,80.10
2019-04-25T15:52:19.847Z,81.20
2019-04-25T15:54:49.200Z,81.40
2019-04-25T15:57:18.447Z,81.50
2019-04-25T15:59:47.770Z,81.80
2019-04-25T16:02:17.764Z,84.30
2019-04-25T16:04:48.588Z,81.10
2019-04-25T16:07:17.822Z,80.20
2019-04-25T16:09:47.178Z,80.90
2019-04-25T16:12:16.864Z,79.60
2019-04-25T16:14:46.119Z,80.90
2019-04-25T16:17:15.370Z,80.40
2019-04-25T16:19:44.756Z,79.60
2019-04-25T16:22:14.194Z,80.90
2019-04-25T16:24:43.547Z,80.10
2019-04-25T16:27:13.974Z,81.60
2019-04-25T16:29:44.625Z,80.20
2019-04-25T16:32:20.839Z,84.00
2019-04-25T16:34:46.486Z,84.20
2019-04-25T16:37:15.725Z,83.00
2019-04-25T16:39:45.141Z,82.60
2019-04-25T16:42:14.484Z,81.00
2019-04-25T16:44:45.261Z,82.90
2019-04-25T16:47:16.465Z,82.90
2019-04-25T16:49:45.986Z,86.00
2019-04-25T16:52:17.629Z,81.70
2019-04-25T16:54:46.283Z,83.50
2019-04-25T16:57:15.651Z,83.40
2019-04-25T16:59:45.068Z,84.70
2019-04-25T17:02:14.953Z,83.30
2019-04-25T17:04:44.262Z,88.50
2019-04-25T17:07:13.975Z,85.60
2019-04-25T17:09:43.323Z,85.00
2019-04-25T17:12:12.828Z,85.30
2019-04-25T17:15:00.267Z,86.70
2019-04-25T17:17:34.151Z,90.20
2019-04-25T17:20:21.815Z,90.40
2019-04-25T17:22:51.126Z,88.40
2019-04-25T17:25:20.710Z,91.70
2019-04-25T17:27:49.986Z,92.90
2019-04-25T17:30:20.185Z,93.10
2019-04-25T17:33:00.311Z,92.60
2019-04-25T17:35:48.748Z,93.30
2019-04-25T17:38:38.100Z,92.90
2019-04-25T17:41:07.515Z,93.00
2019-04-25T17:43:36.932Z,92.80
2019-04-25T17:46:07.374Z,93.90
2019-04-25T17:48:36.618Z,94.20
2019-04-25T17:51:06.075Z,94.00
2019-04-25T17:53:36.406Z,94.30
2019-04-25T17:56:05.841Z,94.90
2019-04-25T17:58:35.255Z,94.50
2019-04-25T18:01:06.479Z,94.30
2019-04-25T18:03:35.789Z,93.50
2019-04-25T18:06:05.251Z,92.60
2019-04-25T18:08:53.901Z,92.20
2019-04-25T18:11:23.155Z,92.30
2019-04-25T18:13:52.531Z,92.10
2019-04-25T18:16:28.927Z,92.30
2019-04-25T18:19:03.722Z,92.60
2019-04-25T18:21:33.099Z,92.80
2019-04-25T18:24:35.375Z,93.20
2019-04-25T18:27:12.550Z,93.40
2019-04-25T18:29:41.847Z,93.60
2019-04-25T18:32:11.212Z,94.90
2019-04-25T18:34:42.290Z,96.00
2019-04-25T18:37:18.979Z,97.00
2019-04-25T18:40:02.148Z,97.60
2019-04-25T18:42:36.457Z,97.80
2019-04-25T18:45:11.042Z,98.10
2019-04-25T18:47:43.243Z,98.50
2019-04-25T18:50:33.337Z,98.90
2019-04-25T18:53:40.774Z,99.20
2019-04-25T18:56:37.719Z,99.30
2019-04-25T18:59:08.818Z,99.60
2019-04-25T19:01:51.938Z,99.90
2019-04-25T19:04:31.895Z,99.90
2019-04-25T19:07:01.229Z,99.90
2019-04-25T19:09:30.522Z,99.90
2019-04-25T19:11:59.876Z,99.90
2019-04-25T19:14:29.259Z,99.90
2019-04-25T19:16:58.505Z,99.90
2019-04-25T19:19:27.779Z,99.90
2019-04-25T19:21:57.074Z,99.90
2019-04-25T19:24:26.326Z,99.90
2019-04-25T19:26:55.646Z,99.90
2019-04-25T19:29:24.906Z,99.90
2019-04-25T19:31:54.423Z,99.90
2019-04-25T19:34:23.720Z,99.90
2019-04-25T19:36:52.962Z,99.90
2019-04-25T19:39:24.045Z,99.90
2019-04-25T19:42:04.455Z,99.90
2019-04-25T19:44:33.772Z,99.90
2019-04-25T19:47:03.123Z,99.90
2019-04-25T19:49:51.898Z,99.90
2019-04-25T19:52:21.283Z,99.90
2019-04-25T19:55:09.972Z,99.90
2019-04-25T19:57:39.488Z,99.90
2019-04-25T20:00:08.989Z,99.90
2019-04-25T20:02:46.458Z,99.90
2019-04-25T20:05:20.480Z,99.90
2019-04-25T20:07:53.799Z,99.90
2019-04-25T20:10:24.844Z,99.90
2019-04-25T20:12:55.050Z,99.90
2019-04-25T20:15:24.524Z,99.90
2019-04-25T20:17:54.237Z,99.90
2019-04-25T20:20:23.791Z,99.90
2019-04-25T20:23:05.452Z,99.90
2019-04-25T20:25:34.793Z,99.90
2019-04-25T20:28:04.214Z,99.90
2019-04-25T20:30:33.644Z,99.90
2019-04-25T20:33:02.949Z,99.90
2019-04-25T20:35:32.219Z,99.90
2019-04-25T20:38:20.918Z,99.90
2019-04-25T20:40:50.264Z,99.90
2019-04-25T20:43:19.663Z,99.90
2019-04-25T20:45:48.974Z,99.90
2019-04-25T20:48:18.319Z,99.90
2019-04-25T20:50:48.373Z,99.90
2019-04-25T20:53:17.780Z,99.90
2019-04-25T20:55:47.484Z,99.90
2019-04-25T20:58:16.998Z,99.90
2019-04-25T21:00:48.317Z,99.90
2019-04-25T21:03:18.089Z,99.90
2019-04-25T21:05:49.682Z,99.90
2019-04-25T21:08:38.838Z,99.90
2019-04-25T21:11:08.179Z,99.90
2019-04-25T21:13:39.063Z,99.90
2019-04-25T21:16:10.123Z,99.90
2019-04-25T21:18:43.788Z,99.90
2019-04-25T21:21:13.084Z,99.90
2019-04-25T21:23:42.360Z,99.90
2019-04-25T21:26:11.627Z,99.90
2019-04-25T21:28:40.890Z,99.90
2019-04-25T21:31:10.303Z,99.90
2019-04-25T21:33:39.668Z,99.90
2019-04-25T21:36:09.060Z,99.90
2019-04-25T21:38:38.579Z,99.90
2019-04-25T21:41:12.946Z,99.90
2019-04-25T21:43:44.007Z,99.90
2019-04-25T21:46:13.699Z,99.90
2019-04-25T21:48:43.415Z,99.90
2019-04-25T21:51:30.387Z,99.90
2019-04-25T21:54:19.373Z,99.90
2019-04-25T21:56:49.080Z,99.90
2019-04-25T21:59:18.794Z,99.90
2019-04-25T22:01:48.459Z,99.90
2019-04-25T22:04:17.789Z,99.90
2019-04-25T22:06:47.420Z,99.90
2019-04-25T22:09:18.419Z,99.90
2019-04-25T22:11:48.040Z,99.90
2019-04-25T22:14:17.684Z,99.90
2019-04-25T22:16:47.246Z,99.90
2019-04-25T22:19:36.221Z,99.90
2019-04-25T22:22:06.831Z,99.90
2019-04-25T22:24:36.278Z,99.90
2019-04-25T22:27:07.405Z,99.90
2019-04-25T22:29:38.410Z,99.90
2019-04-25T22:32:34.976Z,99.90
2019-04-25T22:35:15.845Z,99.90
2019-04-25T22:37:45.155Z,99.90
2019-04-25T22:40:14.639Z,99.90
2019-04-25T22:43:03.558Z,99.90
2019-04-25T22:45:52.570Z,99.90
2019-04-25T22:48:26.649Z,99.90
2019-04-25T22:50:56.168Z,99.90
2019-04-25T22:53:26.452Z,99.90
2019-04-25T22:55:56.432Z,99.90
2019-04-25T22:58:25.674Z,99.90
2019-04-25T23:00:54.983Z,99.90
2019-04-25T23:03:37.891Z,99.90
2019-04-25T23:06:19.416Z,99.90
2019-04-25T23:08:48.682Z,99.90
2019-04-25T23:11:17.931Z,99.90
2019-04-25T23:13:47.366Z,99.90
2019-04-25T23:16:17.051Z,99.90
2019-04-25T23:18:46.335Z,99.90
2019-04-25T23:21:34.935Z,99.90
2019-04-25T23:24:04.766Z,99.90
2019-04-25T23:26:52.930Z,99.90
2019-04-25T23:29:22.207Z,99.90
2019-04-25T23:31:51.441Z,99.90
2019-04-25T23:34:21.090Z,99.90
2019-04-25T23:36:50.398Z,99.90
2019-04-25T23:39:19.928Z,99.90
2019-04-25T23:41:49.191Z,99.90
2019-04-25T23:44:18.430Z,99.90
2019-04-25T23:47:08.254Z,99.90
2019-04-25T23:49:37.702Z,99.90
2019-04-25T23:52:07.410Z,99.90
2019-04-25T23:54:36.722Z,99.90
2019-04-25T23:57:07.051Z,99.90
2019-04-25T23:59:37.399Z,99.90
